sensor_id;sensor_type;location;lat;lon;timestamp;temperature;humidity
67890;DHT22;54685;52.082;5.426;2023-06-10T00:01:17;21.70;59.40
67890;DHT22;54685;52.082;5.426;2023-06-10T00:03:44;21.70;59.20
67890;DHT22;54685;52.082;5.426;2023-06-10T00:06:12;21.70;59.30
67890;DHT22;54685;52.082;5.426;2023-06-10T00:08:39;21.70;59.90
67890;DHT22;54685;52.082;5.426;2023-06-10T00:11:08;21.70;59.20
67890;DHT22;54685;52.082;5.426;2023-06-10T00:13:34;21.60;59.00
67890;DHT22;54685;52.082;5.426;2023-06-10T00:16:02;21.60;59.60
67890;DHT22;54685;52.082;5.426;2023-06-10T00:18:30;21.70;59.60
67890;DHT22;54685;52.082;5.426;2023-06-10T00:20:58;21.60;59.40
67890;DHT22;54685;52.082;5.426;2023-06-10T00:23:31;21.70;59.80
67890;DHT22;54685;52.082;5.426;2023-06-10T00:25:58;21.60;58.40
67890;DHT22;54685;52.082;5.426;2023-06-10T00:28:29;21.60;58.90
67890;DHT22;54685;52.082;5.426;2023-06-10T00:30:57;21.60;58.30
67890;DHT22;54685;52.082;5.426;2023-06-10T00:33:24;21.50;58.30
67890;DHT22;54685;52.082;5.426;2023-06-10T00:35:51;21.50;58.70
67890;DHT22;54685;52.082;5.426;2023-06-10T00:38:18;21.50;58.10
67890;DHT22;54685;52.082;5.426;2023-06-10T00:40:45;21.40;59.00
67890;DHT22;54685;52.082;5.426;2023-06-10T00:43:12;21.40;58.40
67890;DHT22;54685;52.082;5.426;2023-06-10T00:45:39;21.40;58.10
67890;DHT22;54685;52.082;5.426;2023-06-10T00:48:06;21.30;57.90
67890;DHT22;54685;52.082;5.426;2023-06-10T00:50:35;21.30;58.10
67890;DHT22;54685;52.082;5.426;2023-06-10T00:53:05;21.20;57.80
67890;DHT22;54685;52.082;5.426;2023-06-10T00:55:32;21.20;58.20
67890;DHT22;54685;52.082;5.426;2023-06-10T00:57:59;21.20;58.50
67890;DHT22;54685;52.082;5.426;2023-06-10T01:00:27;21.10;57.50
67890;DHT22;54685;52.082;5.426;2023-06-10T01:02:54;21.10;57.60
67890;DHT22;54685;52.082;5.426;2023-06-10T01:05:23;21.10;58.30
67890;DHT22;54685;52.082;5.426;2023-06-10T01:08:27;21.20;58.00
67890;DHT22;54685;52.082;5.426;2023-06-10T01:11:00;21.10;57.50
67890;DHT22;54685;52.082;5.426;2023-06-10T01:13:27;21.00;56.90
67890;DHT22;54685;52.082;5.426;2023-06-10T01:15:57;21.00;55.50
67890;DHT22;54685;52.082;5.426;2023-06-10T01:18:30;20.90;57.00
67890;DHT22;54685;52.082;5.426;2023-06-10T01:20:58;20.90;56.80
67890;DHT22;54685;52.082;5.426;2023-06-10T01:23:25;20.80;57.30
67890;DHT22;54685;52.082;5.426;2023-06-10T01:26:04;20.80;57.00
67890;DHT22;54685;52.082;5.426;2023-06-10T01:28:48;20.70;57.00
67890;DHT22;54685;52.082;5.426;2023-06-10T01:34:01;20.60;56.80
67890;DHT22;54685;52.082;5.426;2023-06-10T01:36:30;20.60;57.60
67890;DHT22;54685;52.082;5.426;2023-06-10T01:38:59;20.60;57.70
67890;DHT22;54685;52.082;5.426;2023-06-10T01:41:27;20.50;57.30
67890;DHT22;54685;52.082;5.426;2023-06-10T01:43:55;20.50;57.60
67890;DHT22;54685;52.082;5.426;2023-06-10T01:46:23;20.50;57.80
67890;DHT22;54685;52.082;5.426;2023-06-10T01:48:50;20.50;57.30
67890;DHT22;54685;52.082;5.426;2023-06-10T01:51:17;20.40;57.40
67890;DHT22;54685;52.082;5.426;2023-06-10T01:53:44;20.40;57.70
67890;DHT22;54685;52.082;5.426;2023-06-10T01:56:11;20.40;58.50
67890;DHT22;54685;52.082;5.426;2023-06-10T01:58:43;20.40;58.00
67890;DHT22;54685;52.082;5.426;2023-06-10T02:01:11;20.40;57.80
67890;DHT22;54685;52.082;5.426;2023-06-10T02:03:37;20.30;57.90
67890;DHT22;54685;52.082;5.426;2023-06-10T02:06:06;20.30;58.40
67890;DHT22;54685;52.082;5.426;2023-06-10T02:08:33;20.20;58.00
67890;DHT22;54685;52.082;5.426;2023-06-10T02:11:00;20.20;58.20
67890;DHT22;54685;52.082;5.426;2023-06-10T02:13:29;20.20;58.20
67890;DHT22;54685;52.082;5.426;2023-06-10T02:15:56;20.10;58.30
67890;DHT22;54685;52.082;5.426;2023-06-10T02:18:28;20.00;58.90
67890;DHT22;54685;52.082;5.426;2023-06-10T02:20:55;20.00;58.90
67890;DHT22;54685;52.082;5.426;2023-06-10T02:23:22;20.00;59.20
67890;DHT22;54685;52.082;5.426;2023-06-10T02:25:49;20.00;59.70
67890;DHT22;54685;52.082;5.426;2023-06-10T02:28:17;19.90;59.40
67890;DHT22;54685;52.082;5.426;2023-06-10T02:30:45;19.90;60.00
67890;DHT22;54685;52.082;5.426;2023-06-10T02:33:14;19.80;59.40
67890;DHT22;54685;52.082;5.426;2023-06-10T02:35:43;19.80;60.20
67890;DHT22;54685;52.082;5.426;2023-06-10T02:38:09;19.80;60.20
67890;DHT22;54685;52.082;5.426;2023-06-10T02:40:37;19.80;60.50
67890;DHT22;54685;52.082;5.426;2023-06-10T02:43:06;19.70;61.00
67890;DHT22;54685;52.082;5.426;2023-06-10T02:45:35;19.70;61.30
67890;DHT22;54685;52.082;5.426;2023-06-10T02:48:03;19.70;61.30
67890;DHT22;54685;52.082;5.426;2023-06-10T02:50:32;19.60;61.80
67890;DHT22;54685;52.082;5.426;2023-06-10T02:53:18;19.50;61.80
67890;DHT22;54685;52.082;5.426;2023-06-10T02:55:50;19.50;62.30
67890;DHT22;54685;52.082;5.426;2023-06-10T02:58:18;19.40;62.60
67890;DHT22;54685;52.082;5.426;2023-06-10T03:00:45;19.40;63.10
67890;DHT22;54685;52.082;5.426;2023-06-10T03:03:13;19.30;63.70
67890;DHT22;54685;52.082;5.426;2023-06-10T03:05:53;19.20;64.20
67890;DHT22;54685;52.082;5.426;2023-06-10T03:08:22;19.20;64.60
67890;DHT22;54685;52.082;5.426;2023-06-10T03:10:49;19.20;65.40
67890;DHT22;54685;52.082;5.426;2023-06-10T03:13:18;19.10;65.50
67890;DHT22;54685;52.082;5.426;2023-06-10T03:15:47;19.10;66.10
67890;DHT22;54685;52.082;5.426;2023-06-10T03:18:18;19.10;66.00
67890;DHT22;54685;52.082;5.426;2023-06-10T03:20:46;19.20;66.40
67890;DHT22;54685;52.082;5.426;2023-06-10T03:23:13;19.10;66.70
67890;DHT22;54685;52.082;5.426;2023-06-10T03:25:40;19.10;68.10
67890;DHT22;54685;52.082;5.426;2023-06-10T03:28:11;19.10;67.40
67890;DHT22;54685;52.082;5.426;2023-06-10T03:30:38;19.00;67.60
67890;DHT22;54685;52.082;5.426;2023-06-10T03:33:06;19.10;69.60
67890;DHT22;54685;52.082;5.426;2023-06-10T03:35:33;19.00;68.10
67890;DHT22;54685;52.082;5.426;2023-06-10T03:38:03;19.00;68.60
67890;DHT22;54685;52.082;5.426;2023-06-10T03:40:30;19.00;68.70
67890;DHT22;54685;52.082;5.426;2023-06-10T03:43:00;19.00;69.00
67890;DHT22;54685;52.082;5.426;2023-06-10T03:45:28;18.90;69.20
67890;DHT22;54685;52.082;5.426;2023-06-10T03:47:56;19.00;69.90
67890;DHT22;54685;52.082;5.426;2023-06-10T03:50:30;19.00;70.20
67890;DHT22;54685;52.082;5.426;2023-06-10T03:52:59;19.00;70.20
67890;DHT22;54685;52.082;5.426;2023-06-10T03:55:27;19.00;70.40
67890;DHT22;54685;52.082;5.426;2023-06-10T03:57:55;18.90;70.70
67890;DHT22;54685;52.082;5.426;2023-06-10T04:00:22;18.90;71.00
67890;DHT22;54685;52.082;5.426;2023-06-10T04:02:49;18.90;71.60
67890;DHT22;54685;52.082;5.426;2023-06-10T04:05:30;18.90;71.70
67890;DHT22;54685;52.082;5.426;2023-06-10T04:07:57;19.00;71.90
67890;DHT22;54685;52.082;5.426;2023-06-10T04:10:25;18.90;72.00
67890;DHT22;54685;52.082;5.426;2023-06-10T04:12:53;18.90;72.50
67890;DHT22;54685;52.082;5.426;2023-06-10T04:15:23;18.90;72.80
67890;DHT22;54685;52.082;5.426;2023-06-10T04:17:50;18.80;73.20
67890;DHT22;54685;52.082;5.426;2023-06-10T04:20:20;18.90;73.50
67890;DHT22;54685;52.082;5.426;2023-06-10T04:22:48;18.90;73.80
67890;DHT22;54685;52.082;5.426;2023-06-10T04:25:15;18.80;74.10
67890;DHT22;54685;52.082;5.426;2023-06-10T04:27:43;18.80;74.60
67890;DHT22;54685;52.082;5.426;2023-06-10T04:30:11;18.80;74.80
67890;DHT22;54685;52.082;5.426;2023-06-10T04:32:39;18.90;75.30
67890;DHT22;54685;52.082;5.426;2023-06-10T04:35:12;18.90;75.50
67890;DHT22;54685;52.082;5.426;2023-06-10T04:37:40;18.90;75.90
67890;DHT22;54685;52.082;5.426;2023-06-10T04:40:09;18.90;76.00
67890;DHT22;54685;52.082;5.426;2023-06-10T04:42:36;18.90;76.30
67890;DHT22;54685;52.082;5.426;2023-06-10T04:45:04;19.00;76.50
67890;DHT22;54685;52.082;5.426;2023-06-10T04:47:31;18.90;76.60
67890;DHT22;54685;52.082;5.426;2023-06-10T04:50:01;18.90;76.70
67890;DHT22;54685;52.082;5.426;2023-06-10T04:52:29;19.00;77.20
67890;DHT22;54685;52.082;5.426;2023-06-10T04:54:57;18.90;77.40
67890;DHT22;54685;52.082;5.426;2023-06-10T04:57:25;19.00;77.30
67890;DHT22;54685;52.082;5.426;2023-06-10T04:59:53;19.00;77.40
67890;DHT22;54685;52.082;5.426;2023-06-10T05:02:20;19.00;77.60
67890;DHT22;54685;52.082;5.426;2023-06-10T05:04:47;19.00;77.90
67890;DHT22;54685;52.082;5.426;2023-06-10T05:07:14;19.00;77.90
67890;DHT22;54685;52.082;5.426;2023-06-10T05:09:41;19.10;78.10
67890;DHT22;54685;52.082;5.426;2023-06-10T05:12:08;19.10;78.60
67890;DHT22;54685;52.082;5.426;2023-06-10T05:14:35;19.10;78.50
67890;DHT22;54685;52.082;5.426;2023-06-10T05:17:03;19.10;78.60
67890;DHT22;54685;52.082;5.426;2023-06-10T05:19:32;19.10;78.40
67890;DHT22;54685;52.082;5.426;2023-06-10T05:22:00;19.20;79.00
67890;DHT22;54685;52.082;5.426;2023-06-10T05:24:27;19.20;79.00
67890;DHT22;54685;52.082;5.426;2023-06-10T05:26:54;19.30;79.60
67890;DHT22;54685;52.082;5.426;2023-06-10T05:29:21;19.30;78.90
67890;DHT22;54685;52.082;5.426;2023-06-10T05:31:48;19.40;78.70
67890;DHT22;54685;52.082;5.426;2023-06-10T05:34:15;19.40;79.20
67890;DHT22;54685;52.082;5.426;2023-06-10T05:36:43;19.40;80.00
67890;DHT22;54685;52.082;5.426;2023-06-10T05:39:10;19.50;79.00
67890;DHT22;54685;52.082;5.426;2023-06-10T05:41:37;19.50;79.90
67890;DHT22;54685;52.082;5.426;2023-06-10T05:44:04;19.50;79.70
67890;DHT22;54685;52.082;5.426;2023-06-10T05:46:31;19.60;78.70
67890;DHT22;54685;52.082;5.426;2023-06-10T05:48:58;19.70;77.90
67890;DHT22;54685;52.082;5.426;2023-06-10T05:51:25;19.70;79.00
67890;DHT22;54685;52.082;5.426;2023-06-10T05:53:54;19.70;79.20
67890;DHT22;54685;52.082;5.426;2023-06-10T05:56:21;19.80;79.90
67890;DHT22;54685;52.082;5.426;2023-06-10T05:58:49;19.80;80.60
67890;DHT22;54685;52.082;5.426;2023-06-10T06:01:16;19.90;81.10
67890;DHT22;54685;52.082;5.426;2023-06-10T06:03:43;19.90;80.70
67890;DHT22;54685;52.082;5.426;2023-06-10T06:06:10;20.00;80.50
67890;DHT22;54685;52.082;5.426;2023-06-10T06:08:37;20.00;80.40
67890;DHT22;54685;52.082;5.426;2023-06-10T06:11:04;20.00;80.20
67890;DHT22;54685;52.082;5.426;2023-06-10T06:13:31;20.10;80.00
67890;DHT22;54685;52.082;5.426;2023-06-10T06:15:58;20.10;79.90
67890;DHT22;54685;52.082;5.426;2023-06-10T06:18:25;20.20;79.70
67890;DHT22;54685;52.082;5.426;2023-06-10T06:20:52;20.30;80.00
67890;DHT22;54685;52.082;5.426;2023-06-10T06:23:20;20.30;79.70
67890;DHT22;54685;52.082;5.426;2023-06-10T06:25:46;20.40;79.70
67890;DHT22;54685;52.082;5.426;2023-06-10T06:28:13;20.50;78.80
67890;DHT22;54685;52.082;5.426;2023-06-10T06:30:40;20.60;79.80
67890;DHT22;54685;52.082;5.426;2023-06-10T06:33:07;20.70;78.10
67890;DHT22;54685;52.082;5.426;2023-06-10T06:35:34;20.70;78.70
67890;DHT22;54685;52.082;5.426;2023-06-10T06:38:02;20.90;76.60
67890;DHT22;54685;52.082;5.426;2023-06-10T06:40:31;20.90;76.20
67890;DHT22;54685;52.082;5.426;2023-06-10T06:42:58;21.00;75.30
67890;DHT22;54685;52.082;5.426;2023-06-10T06:45:37;21.10;75.30
67890;DHT22;54685;52.082;5.426;2023-06-10T06:48:05;21.20;74.40
67890;DHT22;54685;52.082;5.426;2023-06-10T06:50:32;21.20;74.30
67890;DHT22;54685;52.082;5.426;2023-06-10T06:52:59;21.20;74.30
67890;DHT22;54685;52.082;5.426;2023-06-10T06:55:26;21.30;74.70
67890;DHT22;54685;52.082;5.426;2023-06-10T06:57:52;21.30;74.40
67890;DHT22;54685;52.082;5.426;2023-06-10T07:00:20;21.40;73.40
67890;DHT22;54685;52.082;5.426;2023-06-10T07:02:47;21.50;74.00
67890;DHT22;54685;52.082;5.426;2023-06-10T07:05:14;21.50;73.20
67890;DHT22;54685;52.082;5.426;2023-06-10T07:07:41;21.60;72.60
67890;DHT22;54685;52.082;5.426;2023-06-10T07:10:08;21.70;71.80
67890;DHT22;54685;52.082;5.426;2023-06-10T07:12:36;21.80;70.50
67890;DHT22;54685;52.082;5.426;2023-06-10T07:15:03;21.80;70.70
67890;DHT22;54685;52.082;5.426;2023-06-10T07:17:30;21.90;70.20
67890;DHT22;54685;52.082;5.426;2023-06-10T07:19:57;22.00;69.80
67890;DHT22;54685;52.082;5.426;2023-06-10T07:22:26;22.00;69.80
67890;DHT22;54685;52.082;5.426;2023-06-10T07:24:53;22.20;68.90
67890;DHT22;54685;52.082;5.426;2023-06-10T07:27:22;22.30;68.50
67890;DHT22;54685;52.082;5.426;2023-06-10T07:29:50;22.40;68.10
67890;DHT22;54685;52.082;5.426;2023-06-10T07:32:17;22.40;67.90
67890;DHT22;54685;52.082;5.426;2023-06-10T07:34:45;22.50;67.40
67890;DHT22;54685;52.082;5.426;2023-06-10T07:37:12;22.60;67.30
67890;DHT22;54685;52.082;5.426;2023-06-10T07:39:38;22.70;66.90
67890;DHT22;54685;52.082;5.426;2023-06-10T07:42:06;22.80;65.80
67890;DHT22;54685;52.082;5.426;2023-06-10T07:44:33;22.80;66.20
67890;DHT22;54685;52.082;5.426;2023-06-10T07:47:00;22.90;65.10
67890;DHT22;54685;52.082;5.426;2023-06-10T07:49:27;23.00;64.10
67890;DHT22;54685;52.082;5.426;2023-06-10T07:51:54;23.00;64.80
67890;DHT22;54685;52.082;5.426;2023-06-10T07:54:22;23.10;65.20
67890;DHT22;54685;52.082;5.426;2023-06-10T07:56:49;23.20;65.00
67890;DHT22;54685;52.082;5.426;2023-06-10T07:59:16;23.30;64.60
67890;DHT22;54685;52.082;5.426;2023-06-10T08:01:43;23.40;64.30
67890;DHT22;54685;52.082;5.426;2023-06-10T08:04:10;23.50;63.90
67890;DHT22;54685;52.082;5.426;2023-06-10T08:06:38;23.60;64.00
67890;DHT22;54685;52.082;5.426;2023-06-10T08:09:05;23.60;63.20
67890;DHT22;54685;52.082;5.426;2023-06-10T08:11:32;23.70;60.70
67890;DHT22;54685;52.082;5.426;2023-06-10T08:13:59;23.90;61.90
67890;DHT22;54685;52.082;5.426;2023-06-10T08:16:26;23.90;61.50
67890;DHT22;54685;52.082;5.426;2023-06-10T08:18:53;24.00;60.90
67890;DHT22;54685;52.082;5.426;2023-06-10T08:21:21;24.10;60.70
67890;DHT22;54685;52.082;5.426;2023-06-10T08:23:52;24.30;59.90
67890;DHT22;54685;52.082;5.426;2023-06-10T08:26:20;24.40;59.20
67890;DHT22;54685;52.082;5.426;2023-06-10T08:28:47;24.50;58.90
67890;DHT22;54685;52.082;5.426;2023-06-10T08:31:14;24.60;58.80
67890;DHT22;54685;52.082;5.426;2023-06-10T08:33:42;24.70;56.90
67890;DHT22;54685;52.082;5.426;2023-06-10T08:36:09;24.90;56.80
67890;DHT22;54685;52.082;5.426;2023-06-10T08:38:40;25.00;56.50
67890;DHT22;54685;52.082;5.426;2023-06-10T08:41:08;25.10;56.00
67890;DHT22;54685;52.082;5.426;2023-06-10T08:43:45;25.30;55.30
67890;DHT22;54685;52.082;5.426;2023-06-10T08:46:14;25.50;55.00
67890;DHT22;54685;52.082;5.426;2023-06-10T08:48:45;25.60;54.80
67890;DHT22;54685;52.082;5.426;2023-06-10T08:51:16;25.80;55.00
67890;DHT22;54685;52.082;5.426;2023-06-10T08:54:02;26.00;54.70
67890;DHT22;54685;52.082;5.426;2023-06-10T08:56:36;26.20;52.70
67890;DHT22;54685;52.082;5.426;2023-06-10T08:59:06;26.40;52.00
67890;DHT22;54685;52.082;5.426;2023-06-10T09:01:33;26.50;51.20
67890;DHT22;54685;52.082;5.426;2023-06-10T09:04:01;26.60;51.60
67890;DHT22;54685;52.082;5.426;2023-06-10T09:06:32;26.80;50.60
67890;DHT22;54685;52.082;5.426;2023-06-10T09:08:59;27.00;49.20
67890;DHT22;54685;52.082;5.426;2023-06-10T09:11:29;27.10;50.30
67890;DHT22;54685;52.082;5.426;2023-06-10T09:13:57;27.10;48.40
67890;DHT22;54685;52.082;5.426;2023-06-10T09:16:25;27.20;47.30
67890;DHT22;54685;52.082;5.426;2023-06-10T09:18:52;27.30;48.00
67890;DHT22;54685;52.082;5.426;2023-06-10T09:21:25;27.30;47.60
67890;DHT22;54685;52.082;5.426;2023-06-10T09:23:52;27.40;46.60
67890;DHT22;54685;52.082;5.426;2023-06-10T09:26:20;27.70;47.30
67890;DHT22;54685;52.082;5.426;2023-06-10T09:28:50;28.00;47.60
67890;DHT22;54685;52.082;5.426;2023-06-10T09:31:17;28.20;46.70
67890;DHT22;54685;52.082;5.426;2023-06-10T09:33:48;28.40;46.60
67890;DHT22;54685;52.082;5.426;2023-06-10T09:36:25;28.60;46.60
67890;DHT22;54685;52.082;5.426;2023-06-10T09:38:57;28.80;44.10
67890;DHT22;54685;52.082;5.426;2023-06-10T09:41:34;29.00;43.60
67890;DHT22;54685;52.082;5.426;2023-06-10T09:44:16;29.20;43.90
67890;DHT22;54685;52.082;5.426;2023-06-10T09:46:45;29.30;43.40
67890;DHT22;54685;52.082;5.426;2023-06-10T09:49:13;29.40;43.30
67890;DHT22;54685;52.082;5.426;2023-06-10T09:51:54;29.60;43.40
67890;DHT22;54685;52.082;5.426;2023-06-10T09:54:22;29.80;42.90
67890;DHT22;54685;52.082;5.426;2023-06-10T09:56:51;29.80;43.10
67890;DHT22;54685;52.082;5.426;2023-06-10T09:59:30;29.90;42.40
67890;DHT22;54685;52.082;5.426;2023-06-10T10:02:01;30.20;43.00
67890;DHT22;54685;52.082;5.426;2023-06-10T10:04:28;30.50;42.30
67890;DHT22;54685;52.082;5.426;2023-06-10T10:06:55;30.70;41.70
67890;DHT22;54685;52.082;5.426;2023-06-10T10:09:22;30.80;39.90
67890;DHT22;54685;52.082;5.426;2023-06-10T10:11:51;30.90;39.70
67890;DHT22;54685;52.082;5.426;2023-06-10T10:14:21;31.10;40.80
67890;DHT22;54685;52.082;5.426;2023-06-10T10:16:49;31.30;39.30
67890;DHT22;54685;52.082;5.426;2023-06-10T10:19:22;31.50;39.30
67890;DHT22;54685;52.082;5.426;2023-06-10T10:22:01;31.60;37.70
67890;DHT22;54685;52.082;5.426;2023-06-10T10:24:34;31.70;38.00
67890;DHT22;54685;52.082;5.426;2023-06-10T10:27:07;31.90;38.80
67890;DHT22;54685;52.082;5.426;2023-06-10T10:29:39;32.10;37.50
67890;DHT22;54685;52.082;5.426;2023-06-10T10:32:08;32.30;37.30
67890;DHT22;54685;52.082;5.426;2023-06-10T10:34:50;32.40;36.20
67890;DHT22;54685;52.082;5.426;2023-06-10T10:37:20;32.50;36.60
67890;DHT22;54685;52.082;5.426;2023-06-10T10:39:47;32.60;36.30
67890;DHT22;54685;52.082;5.426;2023-06-10T10:42:16;32.80;36.50
67890;DHT22;54685;52.082;5.426;2023-06-10T10:44:44;32.70;34.40
67890;DHT22;54685;52.082;5.426;2023-06-10T10:47:12;32.90;35.00
67890;DHT22;54685;52.082;5.426;2023-06-10T10:49:43;32.90;34.10
67890;DHT22;54685;52.082;5.426;2023-06-10T10:52:12;33.00;34.00
67890;DHT22;54685;52.082;5.426;2023-06-10T10:54:44;33.10;33.70
67890;DHT22;54685;52.082;5.426;2023-06-10T10:59:59;33.40;33.50
67890;DHT22;54685;52.082;5.426;2023-06-10T11:02:40;33.40;32.80
67890;DHT22;54685;52.082;5.426;2023-06-10T11:05:14;33.30;32.20
67890;DHT22;54685;52.082;5.426;2023-06-10T11:07:52;33.40;32.40
67890;DHT22;54685;52.082;5.426;2023-06-10T11:10:29;33.30;30.50
67890;DHT22;54685;52.082;5.426;2023-06-10T11:12:57;33.30;30.00
67890;DHT22;54685;52.082;5.426;2023-06-10T11:15:26;33.40;31.50
67890;DHT22;54685;52.082;5.426;2023-06-10T11:21:06;33.80;31.40
67890;DHT22;54685;52.082;5.426;2023-06-10T11:23:33;34.10;31.00
67890;DHT22;54685;52.082;5.426;2023-06-10T11:26:29;34.40;31.60
67890;DHT22;54685;52.082;5.426;2023-06-10T11:29:04;34.70;29.40
67890;DHT22;54685;52.082;5.426;2023-06-10T11:34:02;34.60;31.40
67890;DHT22;54685;52.082;5.426;2023-06-10T11:36:31;34.40;28.30
67890;DHT22;54685;52.082;5.426;2023-06-10T11:39:03;34.20;29.90
67890;DHT22;54685;52.082;5.426;2023-06-10T11:41:31;34.30;30.10
67890;DHT22;54685;52.082;5.426;2023-06-10T11:44:08;34.30;29.90
67890;DHT22;54685;52.082;5.426;2023-06-10T11:46:35;34.20;28.30
67890;DHT22;54685;52.082;5.426;2023-06-10T11:49:03;34.20;29.60
67890;DHT22;54685;52.082;5.426;2023-06-10T11:51:36;34.20;28.10
67890;DHT22;54685;52.082;5.426;2023-06-10T11:54:04;33.90;28.60
67890;DHT22;54685;52.082;5.426;2023-06-10T11:56:32;34.10;30.10
67890;DHT22;54685;52.082;5.426;2023-06-10T11:59:04;34.20;30.10
67890;DHT22;54685;52.082;5.426;2023-06-10T12:01:35;34.60;29.80
67890;DHT22;54685;52.082;5.426;2023-06-10T12:04:08;34.90;29.90
67890;DHT22;54685;52.082;5.426;2023-06-10T12:06:40;34.90;28.90
67890;DHT22;54685;52.082;5.426;2023-06-10T12:09:29;34.80;28.40
67890;DHT22;54685;52.082;5.426;2023-06-10T12:12:01;34.80;28.00
67890;DHT22;54685;52.082;5.426;2023-06-10T12:14:54;34.60;28.50
67890;DHT22;54685;52.082;5.426;2023-06-10T12:19:51;34.10;28.60
67890;DHT22;54685;52.082;5.426;2023-06-10T12:22:18;34.20;29.10
67890;DHT22;54685;52.082;5.426;2023-06-10T12:25:03;34.20;29.00
67890;DHT22;54685;52.082;5.426;2023-06-10T12:27:31;34.10;28.40
67890;DHT22;54685;52.082;5.426;2023-06-10T12:29:59;34.10;28.60
67890;DHT22;54685;52.082;5.426;2023-06-10T12:32:44;34.00;28.90
67890;DHT22;54685;52.082;5.426;2023-06-10T12:35:15;33.90;28.10
67890;DHT22;54685;52.082;5.426;2023-06-10T12:37:42;33.70;28.20
67890;DHT22;54685;52.082;5.426;2023-06-10T12:40:10;33.50;28.40
67890;DHT22;54685;52.082;5.426;2023-06-10T12:42:38;33.70;29.50
67890;DHT22;54685;52.082;5.426;2023-06-10T12:45:06;33.40;28.90
67890;DHT22;54685;52.082;5.426;2023-06-10T12:47:37;33.50;29.20
67890;DHT22;54685;52.082;5.426;2023-06-10T12:50:08;33.40;29.10
67890;DHT22;54685;52.082;5.426;2023-06-10T12:52:36;33.40;29.60
67890;DHT22;54685;52.082;5.426;2023-06-10T12:55:04;33.50;29.50
67890;DHT22;54685;52.082;5.426;2023-06-10T12:57:31;33.60;29.80
67890;DHT22;54685;52.082;5.426;2023-06-10T12:59:58;33.60;29.30
67890;DHT22;54685;52.082;5.426;2023-06-10T13:02:31;33.40;28.30
67890;DHT22;54685;52.082;5.426;2023-06-10T13:04:58;33.50;29.50
67890;DHT22;54685;52.082;5.426;2023-06-10T13:07:25;33.40;29.20
67890;DHT22;54685;52.082;5.426;2023-06-10T13:09:53;33.00;27.40
67890;DHT22;54685;52.082;5.426;2023-06-10T13:12:20;32.80;28.20
67890;DHT22;54685;52.082;5.426;2023-06-10T13:14:59;33.10;29.60
67890;DHT22;54685;52.082;5.426;2023-06-10T13:17:28;33.00;28.40
67890;DHT22;54685;52.082;5.426;2023-06-10T13:19:55;33.10;29.00
67890;DHT22;54685;52.082;5.426;2023-06-10T13:22:22;33.10;28.80
67890;DHT22;54685;52.082;5.426;2023-06-10T13:24:53;33.00;28.00
67890;DHT22;54685;52.082;5.426;2023-06-10T13:27:20;32.70;28.10
67890;DHT22;54685;52.082;5.426;2023-06-10T13:29:47;32.70;29.40
67890;DHT22;54685;52.082;5.426;2023-06-10T13:32:14;32.90;29.80
67890;DHT22;54685;52.082;5.426;2023-06-10T13:34:44;33.10;29.80
67890;DHT22;54685;52.082;5.426;2023-06-10T13:37:12;33.10;28.60
67890;DHT22;54685;52.082;5.426;2023-06-10T13:39:40;33.10;29.00
67890;DHT22;54685;52.082;5.426;2023-06-10T13:42:07;33.10;29.20
67890;DHT22;54685;52.082;5.426;2023-06-10T13:44:34;33.20;29.10
67890;DHT22;54685;52.082;5.426;2023-06-10T13:47:03;33.00;28.60
67890;DHT22;54685;52.082;5.426;2023-06-10T13:49:30;33.10;29.60
67890;DHT22;54685;52.082;5.426;2023-06-10T13:51:57;33.20;29.30
67890;DHT22;54685;52.082;5.426;2023-06-10T13:54:24;33.20;29.50
67890;DHT22;54685;52.082;5.426;2023-06-10T13:56:51;33.20;29.60
67890;DHT22;54685;52.082;5.426;2023-06-10T13:59:19;33.20;29.30
67890;DHT22;54685;52.082;5.426;2023-06-10T14:01:47;33.20;28.90
67890;DHT22;54685;52.082;5.426;2023-06-10T14:04:14;33.00;28.20
67890;DHT22;54685;52.082;5.426;2023-06-10T14:06:41;33.00;28.60
67890;DHT22;54685;52.082;5.426;2023-06-10T14:09:08;33.00;29.20
67890;DHT22;54685;52.082;5.426;2023-06-10T14:11:35;33.00;28.60
67890;DHT22;54685;52.082;5.426;2023-06-10T14:14:02;32.90;28.70
67890;DHT22;54685;52.082;5.426;2023-06-10T14:16:29;32.90;28.00
67890;DHT22;54685;52.082;5.426;2023-06-10T14:18:56;32.80;28.70
67890;DHT22;54685;52.082;5.426;2023-06-10T14:21:23;32.70;27.40
67890;DHT22;54685;52.082;5.426;2023-06-10T14:23:50;32.70;28.20
67890;DHT22;54685;52.082;5.426;2023-06-10T14:26:19;32.80;29.20
67890;DHT22;54685;52.082;5.426;2023-06-10T14:28:50;32.90;29.60
67890;DHT22;54685;52.082;5.426;2023-06-10T14:31:17;32.90;27.70
67890;DHT22;54685;52.082;5.426;2023-06-10T14:33:51;32.90;28.80
67890;DHT22;54685;52.082;5.426;2023-06-10T14:36:18;32.90;28.40
67890;DHT22;54685;52.082;5.426;2023-06-10T14:38:45;32.90;28.90
67890;DHT22;54685;52.082;5.426;2023-06-10T14:41:13;32.90;28.60
67890;DHT22;54685;52.082;5.426;2023-06-10T14:43:40;33.00;28.10
67890;DHT22;54685;52.082;5.426;2023-06-10T14:46:07;33.00;28.60
67890;DHT22;54685;52.082;5.426;2023-06-10T14:48:34;32.90;28.40
67890;DHT22;54685;52.082;5.426;2023-06-10T14:51:01;32.80;27.40
67890;DHT22;54685;52.082;5.426;2023-06-10T14:53:29;32.80;28.60
67890;DHT22;54685;52.082;5.426;2023-06-10T14:55:56;32.80;28.50
67890;DHT22;54685;52.082;5.426;2023-06-10T14:58:23;32.90;28.30
67890;DHT22;54685;52.082;5.426;2023-06-10T15:00:51;32.80;28.20
67890;DHT22;54685;52.082;5.426;2023-06-10T15:03:18;32.80;28.00
67890;DHT22;54685;52.082;5.426;2023-06-10T15:05:45;32.70;29.10
67890;DHT22;54685;52.082;5.426;2023-06-10T15:08:12;32.70;27.70
67890;DHT22;54685;52.082;5.426;2023-06-10T15:10:39;32.70;27.50
67890;DHT22;54685;52.082;5.426;2023-06-10T15:13:06;32.80;28.30
67890;DHT22;54685;52.082;5.426;2023-06-10T15:15:33;32.70;27.60
67890;DHT22;54685;52.082;5.426;2023-06-10T15:18:00;32.60;27.80
67890;DHT22;54685;52.082;5.426;2023-06-10T15:20:27;32.60;26.90
67890;DHT22;54685;52.082;5.426;2023-06-10T15:22:54;32.60;27.70
67890;DHT22;54685;52.082;5.426;2023-06-10T15:25:21;32.60;27.60
67890;DHT22;54685;52.082;5.426;2023-06-10T15:27:57;32.80;28.40
67890;DHT22;54685;52.082;5.426;2023-06-10T15:30:25;32.80;28.30
67890;DHT22;54685;52.082;5.426;2023-06-10T15:32:54;32.70;28.10
67890;DHT22;54685;52.082;5.426;2023-06-10T15:35:21;32.80;28.30
67890;DHT22;54685;52.082;5.426;2023-06-10T15:37:51;32.80;27.60
67890;DHT22;54685;52.082;5.426;2023-06-10T15:40:18;32.70;28.30
67890;DHT22;54685;52.082;5.426;2023-06-10T15:42:45;32.60;27.50
67890;DHT22;54685;52.082;5.426;2023-06-10T15:45:12;32.70;28.20
67890;DHT22;54685;52.082;5.426;2023-06-10T15:47:39;32.60;27.60
67890;DHT22;54685;52.082;5.426;2023-06-10T15:50:08;32.60;27.50
67890;DHT22;54685;52.082;5.426;2023-06-10T15:52:36;32.40;27.00
67890;DHT22;54685;52.082;5.426;2023-06-10T15:55:03;32.40;27.60